Time;durP1;ratioP1;P1;durP2;ratioP2;P2;SDS_P1;SDS_P2;PMS_P1;PMS_P2;Temp;Humidity;BMP_temperature;BMP_pressure;BME280_temperature;BME280_humidity;BME280_pressure;Samples;Min_cycle;Max_cycle;Signal;HPM_P1;HPM_P2
2023/05/21 00:00:20;;;;;;;4.27;3.87;;;;;;;20.27;57.44;97131.56;4910780;29;20293;-31
2023/05/21 00:02:47;;;;;;;3.77;3.47;;;;;;;20.27;57.46;97129.03;4912896;29;20279;-31
2023/05/21 00:05:15;;;;;;;4.47;3.87;;;;;;;20.26;57.56;97128.97;4915359;29;20214;-31
2023/05/21 00:07:42;;;;;;;3.80;3.40;;;;;;;20.28;57.88;97129.91;4915238;29;20209;-31
2023/05/21 00:10:09;;;;;;;4.37;3.97;;;;;;;20.29;57.55;97132.50;4915137;29;20225;-31
2023/05/21 00:12:36;;;;;;;3.93;3.63;;;;;;;20.29;57.37;97127.38;4915072;29;20213;-31
2023/05/21 00:15:03;;;;;;;4.13;3.60;;;;;;;20.29;57.37;97127.38;4913251;29;20269;-31
2023/05/21 00:17:29;;;;;;;4.33;3.90;;;;;;;20.30;57.85;97130.78;4915254;29;20233;-31
2023/05/21 00:19:56;;;;;;;4.40;4.00;;;;;;;20.27;57.79;97113.72;4914930;29;20290;-31
2023/05/21 00:22:23;;;;;;;4.03;3.63;;;;;;;20.27;57.54;97118.81;4915437;29;20210;-31
2023/05/21 00:24:49;;;;;;;4.20;3.80;;;;;;;20.27;57.94;97112.84;4914720;29;20198;-32
2023/05/21 00:27:16;;;;;;;4.30;3.90;;;;;;;20.26;57.38;97116.22;4912535;29;20655;-32
2023/05/21 00:29:42;;;;;;;4.63;4.10;;;;;;;20.27;57.36;97111.16;4910551;29;20226;-32
2023/05/21 00:32:10;;;;;;;3.97;3.67;;;;;;;20.26;57.40;97106.88;4917719;29;20205;-31
2023/05/21 00:34:37;;;;;;;4.20;3.90;;;;;;;20.25;57.33;97107.69;4918580;29;20721;-31
2023/05/21 00:37:03;;;;;;;4.27;3.87;;;;;;;20.27;57.66;97105.19;4917916;29;20639;-31
2023/05/21 00:39:30;;;;;;;4.27;3.87;;;;;;;20.26;58.03;97108.56;4917635;29;20221;-30
2023/05/21 00:41:57;;;;;;;4.57;3.87;;;;;;;20.26;57.64;97106.88;4912301;29;20194;-31
2023/05/21 00:44:24;;;;;;;4.27;3.87;;;;;;;20.26;57.71;97104.34;4917197;29;20732;-31
2023/05/21 00:46:52;;;;;;;4.63;3.80;;;;;;;20.26;57.43;97100.91;4913274;29;20695;-32
2023/05/21 00:49:21;;;;;;;4.07;3.77;;;;;;;20.26;57.50;97109.44;4900745;29;20770;-31
2023/05/21 00:51:48;;;;;;;3.83;3.53;;;;;;;20.24;57.71;97105.97;4908990;29;20669;-31
2023/05/21 00:54:15;;;;;;;3.63;3.33;;;;;;;20.25;57.00;97105.13;4913565;29;20929;-31
2023/05/21 00:56:41;;;;;;;4.20;3.80;;;;;;;20.24;57.29;97094.88;4917010;29;20202;-32
2023/05/21 00:59:08;;;;;;;3.90;3.60;;;;;;;20.27;57.45;97100.94;4897805;29;20273;-31
2023/05/21 01:01:35;;;;;;;3.90;3.60;;;;;;;20.25;57.20;97092.38;4900973;29;20206;-30
2023/05/21 01:04:02;;;;;;;4.00;3.60;;;;;;;20.28;57.59;97101.81;4898428;29;20253;-31
2023/05/21 01:06:33;;;;;;;3.87;3.53;;;;;;;20.28;57.78;97105.22;4901744;29;20206;-30
2023/05/21 01:09:01;;;;;;;3.80;3.50;;;;;;;20.27;57.51;97094.97;4908842;29;20225;-31
2023/05/21 01:11:37;;;;;;;4.23;3.93;;;;;;;20.27;57.51;97095.84;4905169;29;20210;-31
2023/05/21 01:14:04;;;;;;;4.33;3.93;;;;;;;20.27;57.51;97095.84;4911366;29;20273;-31
2023/05/21 01:16:31;;;;;;;3.80;3.50;;;;;;;20.26;57.65;97089.03;4904764;29;20238;-31
2023/05/21 01:18:58;;;;;;;3.63;3.33;;;;;;;20.27;57.19;97097.53;4904187;29;20256;-31
2023/05/21 01:21:27;;;;;;;4.00;3.60;;;;;;;20.23;57.50;97085.50;4903199;29;20589;-31
2023/05/21 01:23:53;;;;;;;3.93;3.63;;;;;;;20.20;57.54;97077.78;4884236;29;20674;-31
2023/05/21 01:26:20;;;;;;;3.63;3.33;;;;;;;20.25;57.77;97076.22;4900229;29;20205;-31
2023/05/21 01:28:47;;;;;;;3.77;3.47;;;;;;;20.22;57.51;97071.88;4902966;29;20213;-31
2023/05/21 01:31:26;;;;;;;4.17;3.87;;;;;;;20.25;57.61;97079.63;4908823;29;20243;-31
2023/05/21 01:33:52;;;;;;;4.90;3.87;;;;;;;20.23;57.33;97088.06;4911168;29;20226;-31
2023/05/21 01:36:25;;;;;;;4.37;3.97;;;;;;;20.25;57.64;97087.28;4900412;29;20209;-31
2023/05/21 01:39:00;;;;;;;3.77;3.37;;;;;;;20.21;57.50;97080.38;4910024;29;20240;-31
2023/05/21 01:41:27;;;;;;;4.90;3.53;;;;;;;20.25;57.69;97092.38;4916661;29;20209;-31
2023/05/21 01:43:54;;;;;;;4.00;3.60;;;;;;;20.26;57.95;97088.16;4914448;29;20205;-31
2023/05/21 01:46:23;;;;;;;3.53;3.23;;;;;;;20.25;57.69;97096.63;4916078;29;20205;-30
2023/05/21 01:48:50;;;;;;;3.83;3.53;;;;;;;20.24;57.77;97084.69;4916182;29;20213;-32
2023/05/21 01:51:17;;;;;;;4.27;3.87;;;;;;;20.24;57.79;97082.13;4900273;29;20590;-31
2023/05/21 01:53:43;;;;;;;3.80;3.50;;;;;;;20.23;57.59;97088.06;4910588;29;20217;-31
2023/05/21 01:56:10;;;;;;;4.03;3.63;;;;;;;20.22;57.58;97092.28;4916563;29;20201;-31
2023/05/21 01:58:36;;;;;;;3.53;3.23;;;;;;;20.25;57.53;97089.00;4917094;29;20343;-30
2023/05/21 02:01:03;;;;;;;4.20;3.90;;;;;;;20.25;57.42;97092.38;4930147;29;20619;-31
2023/05/21 02:03:30;;;;;;;4.03;3.63;;;;;;;20.23;57.52;97082.97;4911798;29;20201;-31
2023/05/21 02:05:57;;;;;;;4.47;4.07;;;;;;;20.23;57.50;97085.50;4916472;29;20628;-31
2023/05/21 02:08:24;;;;;;;3.70;3.40;;;;;;;20.23;57.61;97083.84;4915574;29;20768;-31
2023/05/21 02:10:51;;;;;;;4.03;3.73;;;;;;;20.23;57.49;97094.03;4917050;29;20229;-31
2023/05/21 02:13:21;;;;;;;3.77;3.40;;;;;;;20.23;57.42;97085.50;4903651;29;20213;-31
2023/05/21 02:15:53;;;;;;;4.63;4.23;;;;;;;20.23;57.54;97083.84;4914589;29;20252;-31
2023/05/21 02:18:20;;;;;;;3.67;3.37;;;;;;;20.22;57.66;97084.63;4915439;29;20206;-31
2023/05/21 02:20:47;;;;;;;4.13;3.83;;;;;;;20.21;57.82;97084.59;4911923;29;20281;-31
2023/05/21 02:23:13;;;;;;;3.93;3.60;;;;;;;20.23;57.89;97082.97;4914650;29;20202;-31
2023/05/21 02:25:40;;;;;;;3.93;3.63;;;;;;;20.23;57.63;97080.41;4907818;29;20202;-31
2023/05/21 02:28:07;;;;;;;3.73;3.43;;;;;;;20.22;57.33;97073.59;4916213;29;20210;-31
2023/05/21 02:30:34;;;;;;;4.57;3.97;;;;;;;20.23;58.00;97090.63;4902320;29;20229;-31
2023/05/21 02:33:01;;;;;;;4.03;3.73;;;;;;;20.23;57.66;97088.94;4909410;29;20265;-32
2023/05/21 02:35:28;;;;;;;3.97;3.67;;;;;;;20.23;57.81;97088.06;4914120;29;20244;-31
2023/05/21 02:37:57;;;;;;;3.87;3.57;;;;;;;20.22;57.95;97089.75;4914265;29;20209;-31
2023/05/21 02:40:24;;;;;;;3.90;3.60;;;;;;;20.22;57.44;97087.19;4908805;29;20618;-31
2023/05/21 02:42:51;;;;;;;4.23;3.53;;;;;;;20.23;57.57;97073.63;4896316;29;20203;-31
2023/05/21 02:45:18;;;;;;;4.10;3.80;;;;;;;20.24;57.15;97089.78;4900621;29;20677;-30
2023/05/21 02:47:44;;;;;;;3.93;3.63;;;;;;;20.22;57.62;97082.09;4910746;29;20773;-31
2023/05/21 02:50:12;;;;;;;3.67;3.37;;;;;;;20.24;57.56;97083.00;4915993;29;20281;-31
2023/05/21 02:52:40;;;;;;;3.97;3.63;;;;;;;20.23;58.00;97082.97;4904715;29;20206;-31
2023/05/21 02:55:07;;;;;;;4.20;3.80;;;;;;;20.22;57.50;97087.19;4916212;29;20229;-31
2023/05/21 02:57:33;;;;;;;3.77;3.47;;;;;;;20.22;57.96;97081.25;4909883;29;20209;-31
2023/05/21 03:00:00;;;;;;;3.40;3.10;;;;;;;20.22;57.44;97081.25;4914680;29;20727;-31
2023/05/21 03:02:27;;;;;;;3.70;3.40;;;;;;;20.23;57.69;97082.97;4911907;29;20199;-31
2023/05/21 03:04:54;;;;;;;4.07;3.77;;;;;;;20.23;57.78;97080.41;4915845;29;20206;-31
2023/05/21 03:07:21;;;;;;;3.83;3.43;;;;;;;20.24;57.49;97079.59;4913119;29;20214;-31
2023/05/21 03:09:47;;;;;;;3.90;3.60;;;;;;;20.23;57.61;97076.19;4911476;29;20225;-31
2023/05/21 03:12:14;;;;;;;4.03;3.70;;;;;;;20.22;57.75;97079.53;4916234;29;20206;-31
2023/05/21 03:14:42;;;;;;;3.97;3.60;;;;;;;20.22;57.26;97076.16;4915984;29;20228;-31
2023/05/21 03:17:12;;;;;;;3.63;3.33;;;;;;;20.22;57.53;97071.03;4908089;29;20210;-30
2023/05/21 03:19:40;;;;;;;3.53;3.23;;;;;;;20.19;57.67;97070.97;4910426;29;20289;-31
2023/05/21 03:22:07;;;;;;;3.83;3.53;;;;;;;20.23;57.42;97077.88;4907514;29;20217;-31
2023/05/21 03:24:34;;;;;;;4.10;3.70;;;;;;;20.22;57.32;97071.03;4911826;29;20202;-30
2023/05/21 03:27:00;;;;;;;3.87;3.57;;;;;;;20.24;57.52;97074.47;4915579;29;20221;-31
2023/05/21 03:29:27;;;;;;;4.57;3.70;;;;;;;20.24;57.49;97065.16;4915524;29;20284;-31
2023/05/21 03:31:54;;;;;;;4.00;3.70;;;;;;;20.22;57.61;97066.78;4915162;29;20619;-31
2023/05/21 03:34:20;;;;;;;3.93;3.63;;;;;;;20.22;57.62;97068.50;4913991;29;20879;-31
2023/05/21 03:36:47;;;;;;;3.60;3.30;;;;;;;20.23;57.46;97070.22;4914682;29;20206;-31
2023/05/21 03:39:14;;;;;;;3.50;3.20;;;;;;;20.21;57.60;97067.63;4910074;29;20291;-30
2023/05/21 03:41:41;;;;;;;3.80;3.50;;;;;;;20.21;57.74;97069.28;4915639;29;20209;-31
2023/05/21 03:44:07;;;;;;;4.10;3.70;;;;;;;20.21;57.56;97070.16;4908243;29;20230;-31
2023/05/21 03:46:34;;;;;;;4.00;3.70;;;;;;;20.21;57.87;97075.28;4905753;29;20250;-31
2023/05/21 03:49:01;;;;;;;4.20;3.47;;;;;;;20.20;57.74;97076.09;4908169;29;20233;-31
2023/05/21 03:51:29;;;;;;;4.10;3.70;;;;;;;20.20;57.61;97073.56;4909049;29;20573;-31
2023/05/21 03:53:57;;;;;;;4.07;3.77;;;;;;;20.18;57.74;97072.63;4908687;29;20214;-31
2023/05/21 03:56:25;;;;;;;3.57;3.27;;;;;;;20.17;58.04;97073.47;4904940;29;20233;-30
2023/05/21 03:58:51;;;;;;;3.60;3.30;;;;;;;20.20;57.59;97076.09;4907770;29;20226;-31
2023/05/21 04:01:18;;;;;;;3.80;3.50;;;;;;;20.20;57.68;97073.56;4909294;29;20197;-31
2023/05/21 04:03:45;;;;;;;3.73;3.43;;;;;;;20.20;57.73;97071.00;4904914;29;20672;-31
2023/05/21 04:06:12;;;;;;;4.00;3.60;;;;;;;20.20;57.66;97077.78;4915577;29;20202;-30
2023/05/21 04:08:38;;;;;;;3.90;3.60;;;;;;;20.21;57.30;97077.81;4917594;29;20229;-31
2023/05/21 04:11:05;;;;;;;3.73;3.43;;;;;;;20.21;57.62;97082.94;4914076;29;20210;-31
2023/05/21 04:13:31;;;;;;;3.50;3.20;;;;;;;20.21;57.48;97075.28;4915952;29;20209;-31
2023/05/21 04:15:58;;;;;;;4.13;3.83;;;;;;;20.21;57.29;97082.94;4915627;29;20261;-31
2023/05/21 04:18:25;;;;;;;3.93;3.63;;;;;;;20.21;57.92;97082.94;4905201;29;20206;-31
2023/05/21 04:20:52;;;;;;;3.60;3.30;;;;;;;20.21;57.46;97080.38;4918671;29;20232;-31
2023/05/21 04:23:22;;;;;;;3.67;3.37;;;;;;;20.20;57.44;97075.22;4909880;29;20228;-31
2023/05/21 04:25:49;;;;;;;3.57;3.27;;;;;;;20.19;57.48;97079.44;4918375;29;20595;-31
2023/05/21 04:28:19;;;;;;;3.60;3.30;;;;;;;20.21;57.73;97076.94;4903952;29;20250;-31
2023/05/21 04:30:46;;;;;;;3.30;3.10;;;;;;;20.20;57.59;97078.66;4918825;29;20615;-32
2023/05/21 04:33:16;;;;;;;4.07;3.77;;;;;;;20.19;57.86;97078.63;4918965;29;20812;-30
2023/05/21 04:35:45;;;;;;;3.50;3.20;;;;;;;20.20;57.62;97083.75;4914098;29;20709;-31
2023/05/21 04:38:11;;;;;;;3.70;3.40;;;;;;;20.18;57.83;97076.84;4918030;29;20201;-31
2023/05/21 04:40:39;;;;;;;3.50;3.20;;;;;;;20.20;57.64;97081.22;4917739;29;20466;-31
2023/05/21 04:43:06;;;;;;;3.60;3.30;;;;;;;20.18;57.67;97085.38;4915418;29;20201;-30
2023/05/21 04:45:33;;;;;;;3.40;3.10;;;;;;;20.20;57.55;97091.41;4902463;29;20201;-31
2023/05/21 04:48:01;;;;;;;3.73;3.43;;;;;;;20.16;57.84;97078.53;4918451;29;20205;-31
2023/05/21 04:50:29;;;;;;;3.77;3.47;;;;;;;20.21;57.59;97097.34;4916595;29;20363;-31
2023/05/21 04:52:57;;;;;;;3.43;3.17;;;;;;;20.20;57.82;97096.50;4910380;29;20636;-31
2023/05/21 04:55:24;;;;;;;3.20;3.00;;;;;;;20.18;57.45;97090.50;4913466;29;20253;-31
2023/05/21 04:57:51;;;;;;;3.80;3.50;;;;;;;20.20;57.54;97090.53;4918279;29;20209;-31
2023/05/21 05:00:18;;;;;;;3.53;3.23;;;;;;;20.21;57.61;97094.81;4911873;29;20230;-31
2023/05/21 05:02:45;;;;;;;3.83;3.53;;;;;;;20.22;57.67;97092.28;4912911;29;20211;-31
2023/05/21 05:05:12;;;;;;;3.90;3.60;;;;;;;20.21;57.44;97087.16;4902954;29;20262;-31
2023/05/21 05:07:38;;;;;;;3.93;3.57;;;;;;;20.20;57.86;97083.75;4906813;29;20622;-31
2023/05/21 05:10:06;;;;;;;3.90;3.60;;;;;;;20.21;57.70;97089.69;4909054;29;20284;-31
2023/05/21 05:12:32;;;;;;;3.53;3.30;;;;;;;20.20;57.74;97086.31;4914588;29;20213;-31
2023/05/21 05:14:59;;;;;;;3.67;3.37;;;;;;;20.20;57.43;97085.44;4916224;29;20257;-31
2023/05/21 05:17:26;;;;;;;3.77;3.47;;;;;;;20.19;57.35;97092.22;4899263;29;20206;-32
2023/05/21 05:19:53;;;;;;;3.77;3.47;;;;;;;20.20;57.64;97090.53;4897929;29;20281;-31
2023/05/21 05:22:19;;;;;;;3.80;3.50;;;;;;;20.19;57.40;97084.56;4898014;29;20274;-31
2023/05/21 05:24:46;;;;;;;3.70;3.40;;;;;;;20.19;57.76;97086.25;4896250;29;20673;-31
2023/05/21 05:27:12;;;;;;;3.80;3.50;;;;;;;20.20;57.53;97087.97;4896755;29;20262;-31
2023/05/21 05:29:39;;;;;;;3.90;3.50;;;;;;;20.18;57.75;97087.94;4896303;29;20672;-31
2023/05/21 05:32:06;;;;;;;3.90;3.60;;;;;;;20.19;57.38;97088.81;4897270;29;20266;-32
2023/05/21 05:34:33;;;;;;;3.37;3.10;;;;;;;20.20;57.54;97083.75;4895737;29;20257;-31
2023/05/21 05:37:01;;;;;;;3.57;3.27;;;;;;;20.20;57.40;97091.41;4896369;29;20232;-31
2023/05/21 05:39:28;;;;;;;3.80;3.50;;;;;;;20.20;57.99;97091.41;4896546;29;20590;-31
2023/05/21 05:41:55;;;;;;;3.80;3.50;;;;;;;20.20;57.64;97087.97;4895867;29;20297;-32
2023/05/21 05:44:21;;;;;;;3.53;3.23;;;;;;;20.20;57.96;97091.41;4897005;29;20214;-31
2023/05/21 05:46:48;;;;;;;3.77;3.47;;;;;;;20.21;57.88;97098.22;4896198;29;20202;-31
2023/05/21 05:49:14;;;;;;;3.97;3.67;;;;;;;20.21;57.85;97092.25;4893485;29;20340;-31
2023/05/21 05:51:41;;;;;;;3.70;3.40;;;;;;;20.21;57.59;97087.16;4894637;29;20234;-30
2023/05/21 05:54:08;;;;;;;3.73;3.43;;;;;;;20.22;57.51;97096.56;4894714;29;20211;-30
2023/05/21 05:56:34;;;;;;;3.93;3.63;;;;;;;20.22;57.33;97094.00;4901706;29;20257;-30
2023/05/21 05:59:01;;;;;;;3.73;3.43;;;;;;;20.22;57.59;97094.00;4900829;29;20606;-30
2023/05/21 06:01:27;;;;;;;3.80;3.50;;;;;;;20.20;57.38;97100.75;4902053;29;20596;-30
2023/05/21 06:03:56;;;;;;;4.20;3.80;;;;;;;20.20;57.56;97095.63;4908743;29;20254;-30
2023/05/21 06:06:22;;;;;;;4.03;3.63;;;;;;;20.21;57.36;97102.47;4899175;29;20202;-30
2023/05/21 06:08:49;;;;;;;4.00;3.70;;;;;;;20.20;57.58;97103.28;4898334;29;20222;-30
2023/05/21 06:11:17;;;;;;;3.80;3.50;;;;;;;20.21;57.56;97102.47;4904247;29;20205;-30
2023/05/21 06:13:44;;;;;;;3.30;3.10;;;;;;;20.21;57.57;97103.34;4904866;29;20206;-30
2023/05/21 06:16:11;;;;;;;3.37;3.07;;;;;;;20.21;57.52;97102.47;4897029;29;20568;-30
2023/05/21 06:18:38;;;;;;;3.90;3.60;;;;;;;20.21;58.04;97102.47;4908635;29;20681;-29
2023/05/21 06:21:04;;;;;;;3.33;3.13;;;;;;;20.21;57.65;97097.34;4899544;29;20206;-30
2023/05/21 06:23:31;;;;;;;3.37;3.00;;;;;;;20.20;57.22;97093.97;4905505;29;20262;-30
2023/05/21 06:25:58;;;;;;;3.67;3.37;;;;;;;20.22;57.97;97094.00;4898399;29;20293;-30
2023/05/21 06:28:25;;;;;;;4.17;3.73;;;;;;;20.21;57.67;97100.78;4905574;29;20203;-29
2023/05/21 06:30:51;;;;;;;6.20;3.80;;;;;;;20.22;58.08;97099.94;4902702;29;20249;-30
2023/05/21 06:33:18;;;;;;;6.43;4.00;;;;;;;20.25;58.10;97102.59;4906748;29;20619;-30
2023/05/21 06:35:44;;;;;;;4.23;3.83;;;;;;;20.27;57.92;97094.97;4902195;29;20229;-29
2023/05/21 06:38:11;;;;;;;4.50;3.83;;;;;;;20.29;57.84;97101.00;4901857;29;20210;-30
2023/05/21 06:40:38;;;;;;;4.57;4.17;;;;;;;20.28;57.93;97100.13;4901321;29;20233;-30
2023/05/21 06:43:04;;;;;;;5.23;4.03;;;;;;;20.29;58.03;97099.31;4904873;29;20257;-30
2023/05/21 06:45:31;;;;;;;4.83;4.00;;;;;;;20.30;58.34;97100.16;4893381;29;20584;-29
2023/05/21 06:47:58;;;;;;;5.20;4.17;;;;;;;20.30;58.42;97098.47;4909966;29;20202;-30
2023/05/21 06:50:24;;;;;;;9.17;5.03;;;;;;;20.30;58.38;97098.47;4899326;29;20230;-30
2023/05/21 06:52:51;;;;;;;5.30;4.43;;;;;;;20.31;57.98;97107.84;4903730;29;20266;-30
2023/05/21 06:55:17;;;;;;;9.37;4.40;;;;;;;20.31;58.27;97100.19;4902198;29;20261;-30
2023/05/21 06:57:44;;;;;;;5.73;4.57;;;;;;;20.33;58.46;97102.78;4896924;29;20270;-30
2023/05/21 07:00:11;;;;;;;6.80;4.73;;;;;;;20.32;58.38;97096.84;4896483;29;20262;-30
2023/05/21 07:02:37;;;;;;;8.07;4.77;;;;;;;20.34;57.94;97104.53;4897770;29;20575;-30
2023/05/21 07:05:05;;;;;;;6.40;4.50;;;;;;;20.33;58.13;97098.56;4898641;29;20286;-30
2023/05/21 07:07:33;;;;;;;5.47;4.93;;;;;;;20.34;57.82;97114.75;4906504;29;20692;-30
2023/05/21 07:10:00;;;;;;;6.77;4.60;;;;;;;20.32;57.70;97101.06;4902195;29;20229;-30
2023/05/21 07:12:26;;;;;;;5.37;4.50;;;;;;;20.33;58.09;97113.00;4908913;29;20206;-30
2023/05/21 07:14:53;;;;;;;6.90;4.60;;;;;;;20.32;58.09;97104.50;4909517;29;20265;-29
2023/05/21 07:17:20;;;;;;;5.97;4.80;;;;;;;20.32;58.08;97109.59;4915577;29;20225;-30
2023/05/21 07:19:46;;;;;;;5.17;4.33;;;;;;;20.33;58.18;97110.44;4908158;29;20712;-29
2023/05/21 07:22:13;;;;;;;5.40;4.60;;;;;;;20.33;58.46;97106.22;4901964;29;20648;-30
2023/05/21 07:24:40;;;;;;;6.20;4.70;;;;;;;20.32;58.10;97107.06;4906555;29;20205;-29
2023/05/21 07:27:06;;;;;;;5.37;4.70;;;;;;;20.33;58.58;97105.34;4895947;29;20281;-29
2023/05/21 07:29:49;;;;;;;6.93;4.70;;;;;;;20.31;58.22;97096.81;4911246;29;20226;-30
2023/05/21 07:32:16;;;;;;;5.50;4.90;;;;;;;20.30;58.03;97106.13;4900502;29;20202;-30
2023/05/21 07:34:43;;;;;;;5.37;4.87;;;;;;;20.31;58.56;97107.00;4906289;29;20202;-30
2023/05/21 07:37:09;;;;;;;5.73;5.20;;;;;;;20.30;58.74;97102.72;4905933;29;20253;-30
2023/05/21 07:39:36;;;;;;;5.33;4.83;;;;;;;20.29;58.60;97106.97;4898798;29;20230;-30
2023/05/21 07:42:03;;;;;;;6.13;4.90;;;;;;;20.30;58.68;97105.25;4906965;29;20224;-30
2023/05/21 07:44:30;;;;;;;9.13;5.23;;;;;;;20.29;58.83;97101.88;4910263;29;20233;-30
2023/05/21 07:46:57;;;;;;;8.27;5.63;;;;;;;20.29;58.31;97106.97;4909233;29;20193;-30
2023/05/21 07:49:23;;;;;;;13.23;6.07;;;;;;;20.31;59.40;97107.00;4898393;29;20252;-30
2023/05/21 07:51:50;;;;;;;9.80;6.30;;;;;;;20.32;59.44;97113.84;4896044;29;20250;-29
2023/05/21 07:54:18;;;;;;;8.60;6.33;;;;;;;20.33;58.87;97108.78;4896397;29;20234;-30
2023/05/21 07:56:45;;;;;;;12.63;6.20;;;;;;;20.34;59.31;97109.66;4894814;29;20259;-29
2023/05/21 07:59:13;;;;;;;8.43;6.53;;;;;;;20.36;59.52;97113.09;4898621;29;20645;-30
2023/05/21 08:01:39;;;;;;;6.63;5.57;;;;;;;20.37;59.28;97117.38;4903603;29;20209;-29
2023/05/21 08:04:06;;;;;;;9.27;6.40;;;;;;;20.37;59.17;97112.28;4901846;29;20213;-30
2023/05/21 08:06:33;;;;;;;11.90;7.03;;;;;;;20.38;58.98;97106.34;4905434;29;20194;-30
2023/05/21 08:09:03;;;;;;;7.33;5.47;;;;;;;20.39;59.18;97111.50;4903097;29;20351;-30
2023/05/21 08:11:30;;;;;;;6.73;5.30;;;;;;;20.41;58.27;97114.97;4898931;29;20207;-30
2023/05/21 08:13:56;;;;;;;8.63;5.13;;;;;;;20.40;58.23;97108.09;4903418;29;20205;-30
2023/05/21 08:16:23;;;;;;;6.43;5.17;;;;;;;20.42;58.27;97110.69;4898290;29;20269;-30
2023/05/21 08:18:50;;;;;;;7.37;5.40;;;;;;;20.42;58.37;97114.13;4888185;29;20221;-28
2023/05/21 08:21:17;;;;;;;6.47;4.77;;;;;;;20.43;58.51;97113.28;4887852;29;20217;-30
2023/05/21 08:23:43;;;;;;;6.90;5.17;;;;;;;20.42;58.18;97116.69;4889296;29;20249;-30
2023/05/21 08:26:10;;;;;;;8.77;5.40;;;;;;;20.42;58.33;97114.13;4889233;29;20210;-30
2023/05/21 08:28:37;;;;;;;6.20;5.53;;;;;;;20.43;58.04;97110.75;4889682;29;20861;-29
2023/05/21 08:31:04;;;;;;;6.30;5.20;;;;;;;20.42;58.23;97110.69;4889862;29;20634;-30
2023/05/21 08:33:30;;;;;;;8.23;5.47;;;;;;;20.43;58.19;97105.63;4890137;29;20246;-29
2023/05/21 08:35:57;;;;;;;8.33;5.70;;;;;;;20.42;58.44;97109.03;4890323;29;20237;-30
2023/05/21 08:38:24;;;;;;;5.70;5.10;;;;;;;20.42;58.19;97105.59;4889831;29;20676;-30
2023/05/21 08:40:52;;;;;;;6.73;5.40;;;;;;;20.43;57.72;97103.09;4890775;29;20241;-30
2023/05/21 08:43:18;;;;;;;7.03;5.47;;;;;;;20.44;57.74;97111.63;4888712;29;20697;-30
2023/05/21 08:45:48;;;;;;;7.70;6.03;;;;;;;20.41;58.17;97102.19;4889157;29;20724;-29
2023/05/21 08:48:15;;;;;;;5.83;5.33;;;;;;;20.40;57.94;97099.59;4902607;29;20477;-30
2023/05/21 08:50:42;;;;;;;6.13;5.60;;;;;;;20.43;58.19;97108.19;4901404;29;20242;-30
2023/05/21 08:53:09;;;;;;;7.63;5.30;;;;;;;20.43;58.17;97109.91;4887594;29;20265;-29
2023/05/21 08:55:52;;;;;;;5.83;5.33;;;;;;;20.43;57.91;97110.75;4889427;29;20575;-29
2023/05/21 08:58:19;;;;;;;6.27;5.67;;;;;;;20.40;58.04;97100.44;4892970;29;20217;-30
2023/05/21 09:00:46;;;;;;;5.53;5.00;;;;;;;20.41;58.17;97111.53;4891163;29;20229;-30
2023/05/21 09:03:13;;;;;;;5.80;5.30;;;;;;;20.39;57.92;97098.72;4906761;29;20210;-30
2023/05/21 09:05:41;;;;;;;6.00;5.40;;;;;;;20.43;58.03;97107.34;4893001;29;20213;-29
2023/05/21 09:08:26;;;;;;;6.77;6.10;;;;;;;20.42;57.95;97105.59;4883809;29;20328;-29
2023/05/21 09:10:53;;;;;;;5.90;5.30;;;;;;;20.41;57.76;97107.31;4890602;29;20233;-29
2023/05/21 09:13:19;;;;;;;6.93;5.80;;;;;;;20.22;58.05;97068.50;4890262;29;20457;-30
2023/05/21 09:15:46;;;;;;;6.67;4.80;;;;;;;20.42;58.09;97119.22;4890313;29;20225;-30
2023/05/21 09:18:13;;;;;;;6.67;5.53;;;;;;;20.41;58.11;97103.88;4890056;29;20277;-29
2023/05/21 09:20:40;;;;;;;5.47;4.97;;;;;;;20.41;58.29;97108.97;4889560;29;20306;-30
2023/05/21 09:23:11;;;;;;;7.10;5.00;;;;;;;20.40;58.06;97108.09;4891621;29;20233;-29
2023/05/21 09:25:37;;;;;;;9.13;5.23;;;;;;;20.40;57.96;97120.03;4890596;29;20213;-30
2023/05/21 09:28:10;;;;;;;6.17;5.57;;;;;;;20.40;57.96;97113.22;4890900;29;20217;-30
2023/05/21 09:30:43;;;;;;;5.20;4.80;;;;;;;20.41;58.04;97107.31;4891174;29;20294;-30
2023/05/21 09:33:10;;;;;;;6.97;5.33;;;;;;;20.42;58.39;97110.69;4890180;29;20224;-27
2023/05/21 09:35:44;;;;;;;6.70;5.23;;;;;;;20.42;57.97;97113.25;4887654;29;20305;-30
2023/05/21 09:38:10;;;;;;;6.93;5.47;;;;;;;20.42;58.67;97115.81;4890425;29;20250;-30
2023/05/21 09:40:38;;;;;;;5.87;5.23;;;;;;;20.43;58.04;97109.91;4901809;29;20265;-29
2023/05/21 09:43:04;;;;;;;5.07;4.57;;;;;;;20.42;57.90;97106.47;4890786;29;20277;-30
2023/05/21 09:45:31;;;;;;;5.90;5.30;;;;;;;20.42;58.31;97111.56;4904280;29;20258;-29
2023/05/21 09:47:57;;;;;;;6.17;5.60;;;;;;;20.43;58.18;97104.78;4890192;29;20709;-30
2023/05/21 09:50:28;;;;;;;5.67;5.17;;;;;;;20.42;57.84;97105.59;4891946;29;20234;-29
2023/05/21 09:52:54;;;;;;;6.27;5.23;;;;;;;20.40;58.12;97095.34;4888229;29;20213;-30
2023/05/21 09:55:22;;;;;;;6.20;5.23;;;;;;;20.42;57.83;97098.81;4891548;29;20210;-28
2023/05/21 09:57:48;;;;;;;6.07;5.50;;;;;;;20.42;57.93;97096.25;4889718;29;20234;-30
2023/05/21 10:00:17;;;;;;;6.17;5.60;;;;;;;20.42;57.79;97100.50;4889828;29;20780;-30
2023/05/21 10:02:45;;;;;;;5.27;4.80;;;;;;;20.42;57.97;97087.72;4891119;29;21090;-30
2023/05/21 10:05:15;;;;;;;9.53;5.20;;;;;;;20.42;57.83;97098.81;4887185;29;20289;-29
2023/05/21 10:07:48;;;;;;;5.50;5.00;;;;;;;20.42;57.94;97108.16;4891018;29;20228;-27
2023/05/21 10:10:14;;;;;;;6.57;5.80;;;;;;;20.41;57.57;97103.88;4890666;29;20309;-29
2023/05/21 10:12:45;;;;;;;6.00;5.43;;;;;;;20.40;58.03;97100.44;4888376;29;20221;-30
2023/05/21 10:15:15;;;;;;;5.63;5.13;;;;;;;20.41;57.82;97099.66;4889900;29;20313;-27
2023/05/21 10:17:43;;;;;;;8.43;4.73;;;;;;;20.42;57.96;97103.03;4889532;29;20339;-28
2023/05/21 10:20:10;;;;;;;5.30;4.83;;;;;;;20.42;58.00;97108.16;4889036;29;20230;-30
2023/05/21 10:22:37;;;;;;;5.23;4.73;;;;;;;20.41;57.90;97094.53;4897998;29;20221;-28
2023/05/21 10:25:05;;;;;;;5.87;5.30;;;;;;;20.41;57.90;97094.53;4912774;29;20206;-28
2023/05/21 10:27:32;;;;;;;5.43;4.93;;;;;;;20.42;57.98;97101.38;4915455;29;20213;-30
2023/05/21 10:29:59;;;;;;;6.50;5.13;;;;;;;20.42;57.90;97087.72;4902606;29;20760;-30
2023/05/21 10:32:26;;;;;;;5.70;5.17;;;;;;;20.41;58.02;97086.88;4893940;29;20293;-30
2023/05/21 10:34:53;;;;;;;6.00;5.40;;;;;;;20.42;57.83;97092.84;4893718;29;20206;-30
2023/05/21 10:37:21;;;;;;;7.30;5.37;;;;;;;20.38;57.73;97078.28;4894775;29;20278;-29
2023/05/21 10:39:49;;;;;;;5.87;5.17;;;;;;;20.42;57.97;97077.53;4894200;29;20813;-30
2023/05/21 10:42:31;;;;;;;5.43;4.90;;;;;;;20.42;57.99;97085.19;4901328;29;20238;-30
2023/05/21 10:44:59;;;;;;;5.17;4.73;;;;;;;20.42;57.88;97080.06;4898494;29;20203;-29
2023/05/21 10:47:51;;;;;;;6.30;5.70;;;;;;;20.42;57.87;97083.50;4895597;29;20243;-29
2023/05/21 10:50:28;;;;;;;5.13;4.63;;;;;;;20.43;57.64;97079.28;4906218;29;20265;-28
2023/05/21 10:53:06;;;;;;;5.60;5.10;;;;;;;20.41;57.86;97076.69;4903663;29;20207;-30
2023/05/21 10:55:38;;;;;;;5.90;5.20;;;;;;;20.42;57.78;97074.97;4902427;29;20238;-29
2023/05/21 10:58:18;;;;;;;6.57;4.83;;;;;;;20.39;57.92;97068.09;4897149;29;20789;-29
2023/05/21 11:00:45;;;;;;;5.10;4.70;;;;;;;20.42;57.93;97077.53;4910010;29;20293;-28
2023/05/21 11:03:11;;;;;;;5.47;5.00;;;;;;;20.42;57.94;97074.97;4894146;29;20727;-30
2023/05/21 11:05:51;;;;;;;6.00;5.50;;;;;;;20.42;57.84;97078.41;4897631;29;20599;-29
2023/05/21 11:08:34;;;;;;;5.73;5.13;;;;;;;20.41;58.02;97074.13;4894169;29;20293;-30
2023/05/21 11:11:01;;;;;;;5.27;4.77;;;;;;;20.42;57.82;97075.84;4898661;29;20586;-30
2023/05/21 11:13:43;;;;;;;7.20;5.70;;;;;;;20.42;57.92;97070.75;4907241;29;20587;-28
2023/05/21 11:16:13;;;;;;;7.97;4.83;;;;;;;20.43;57.92;97077.56;4892917;29;20281;-29
2023/05/21 11:18:39;;;;;;;6.07;5.27;;;;;;;20.43;57.89;97069.91;4901162;29;20217;-30
2023/05/21 11:21:14;;;;;;;6.07;4.97;;;;;;;20.43;58.06;97080.13;4904633;29;20210;-29
2023/05/21 11:23:49;;;;;;;5.83;5.23;;;;;;;20.43;57.88;97072.47;4900189;29;20339;-30
2023/05/21 11:26:17;;;;;;;5.70;5.17;;;;;;;20.43;58.24;97071.63;4888034;29;20210;-30
2023/05/21 11:28:44;;;;;;;5.90;5.40;;;;;;;20.43;57.87;97066.50;4904096;29;20272;-30
2023/05/21 11:31:36;;;;;;;6.40;5.53;;;;;;;20.43;57.81;97062.25;4899704;29;20262;-30
2023/05/21 11:34:20;;;;;;;6.20;5.60;;;;;;;20.42;57.69;97063.09;4903132;29;20236;-30
2023/05/21 11:36:47;;;;;;;7.70;5.17;;;;;;;20.43;57.66;97061.41;4896036;29;20401;-30